Terminal Aerodrome Forecast
Issued by NWS Missoula, MT

Home | Current Version | Previous Version | Text Only | Print | Product List | Glossary On
Versions: 1 2 3 4 5 6 7 8 9 10 11 12 13 14
000
FTUS45 KMSO 021120
TAFGPI
TAF
KGPI 021120Z 0212/0312 VRB03KT P6SM OVC100
     FM021900 20013G23KT P6SM VCSH OVC070
     FM030100 22006KT P6SM VCSH OVC060
     FM030600 VRB03KT P6SM -RA OVC050=

USA.gov is the U.S. government's official web portal to all federal, state and local government web resources and services.